Charter Quote
Worldwide +1-877-727-2538 Call
Select Language Lang
SAFETY RELIABILITY EXPERIENCE

Private Jet Charter Services - Dongshan (ZBLA)

Paramount Business Jets offers private jet charter flights and luxury airliner charters to and from Dongshan.

AIRPORT INFORMATION
ICAOZBLA
IATAHLD
LOCATIONHailar, China
FACILITY TYPEAIRPORT

At Paramount Business Jets you can hire chartered private jets to and from Dongshan with as little as 4 hours of notice. All flights booked via Paramount Business Jets are operated by certified direct air carriers that meet and exceed the FAA part 135 and 121 protocol or a foreign equivalent safety authority. Furthermore, Paramount Business Jets subscribes to ARGUS for their third party safety checks of operators, aircraft, and crews prior each and every flight to and from Dongshan and worldwide.

  • Quote a trip using Dongshan or call us 24/7 - 365 days a year at +1-877-727-2538.
Questions? Call +1-877-727-2538

METAR Weather Data at Dongshan, ZBLA, HLD

STATIONZBLA
OBSERVEDTue Oct 14, 21:00 UTC
NOWMon Oct 21, 20:40 UTC
AGE43991:40 hr ago
WINDENE at 4 mph
VISIBILITY16 miles
CLOUDSscattered clouds
TEMP34°F (1°C)
WIND CHILL30°F (-1°C)
DEWPT23°F (-5°C)
HUMIDITY65%
BAROMETER1004 hPa (29.65 in Hg)
METARZBLA 142100Z 06002MPS 9999 SCT030 01/M05 Q1004 NOSIG

Call us on +1-877-727-2538 (24 Hours) to Hire a Private Jet or Get a Quick Quote.

Find Airports Near any Location

Processing
...